createdAt,value
2022-09-14T00:01:29.131Z,18.00
2022-09-14T00:04:01.746Z,17.90
2022-09-14T00:06:29.471Z,17.70
2022-09-14T00:08:58.298Z,17.80
2022-09-14T00:11:27.085Z,17.80
2022-09-14T00:13:54.388Z,17.80
2022-09-14T00:16:28.567Z,17.80
2022-09-14T00:19:05.593Z,17.90
2022-09-14T00:21:38.217Z,17.90
2022-09-14T00:24:07.244Z,18.00
2022-09-14T00:26:34.514Z,17.90
2022-09-14T00:29:05.108Z,17.90
2022-09-14T00:31:34.872Z,17.90
2022-09-14T00:34:02.704Z,18.00
2022-09-14T00:36:31.658Z,18.00
2022-09-14T00:39:00.621Z,18.70
2022-09-14T00:41:32.020Z,18.00
2022-09-14T00:44:12.806Z,17.90
2022-09-14T00:46:45.870Z,17.90
2022-09-14T00:49:34.357Z,17.90
2022-09-14T00:52:25.701Z,18.10
2022-09-14T00:54:56.458Z,18.00
2022-09-14T00:57:26.329Z,18.10
2022-09-14T00:59:54.639Z,17.90
2022-09-14T01:02:23.451Z,18.50
2022-09-14T01:04:51.622Z,18.00
2022-09-14T01:07:43.741Z,18.70
2022-09-14T01:10:27.159Z,18.10
2022-09-14T01:13:15.131Z,18.20
2022-09-14T01:16:31.231Z,18.10
2022-09-14T01:19:05.245Z,18.10
2022-09-14T01:21:35.787Z,18.00
2022-09-14T01:24:24.063Z,18.00
2022-09-14T01:27:05.783Z,18.00
2022-09-14T01:29:52.749Z,18.00
2022-09-14T01:32:28.595Z,18.00
2022-09-14T01:35:13.079Z,18.00
2022-09-14T01:37:45.613Z,17.90
2022-09-14T01:40:35.818Z,17.80
2022-09-14T01:43:19.822Z,17.90
2022-09-14T01:45:50.343Z,17.90
2022-09-14T01:48:20.668Z,18.00
2022-09-14T01:50:51.864Z,18.00
2022-09-14T01:53:34.718Z,18.00
2022-09-14T01:56:21.127Z,18.10
2022-09-14T01:58:54.027Z,18.10
2022-09-14T02:01:34.420Z,18.20
2022-09-14T02:04:06.864Z,18.20
2022-09-14T02:06:42.319Z,18.20
2022-09-14T02:09:13.876Z,18.50
2022-09-14T02:11:40.910Z,18.30
2022-09-14T02:14:07.903Z,18.40
2022-09-14T02:16:35.553Z,18.30
2022-09-14T02:19:02.676Z,18.30
2022-09-14T02:21:31.887Z,18.50
2022-09-14T02:24:00.142Z,18.40
2022-09-14T02:26:28.308Z,18.60
2022-09-14T02:28:56.395Z,18.50
2022-09-14T02:31:50.855Z,19.00
2022-09-14T02:34:46.454Z,18.40
2022-09-14T02:37:39.356Z,18.50
2022-09-14T02:40:17.799Z,18.60
2022-09-14T02:43:02.813Z,18.50
2022-09-14T02:45:35.920Z,18.40
2022-09-14T02:48:28.878Z,18.50
2022-09-14T02:51:04.510Z,18.40
2022-09-14T02:53:42.578Z,18.40
2022-09-14T02:56:11.215Z,18.40
2022-09-14T02:58:42.284Z,18.40
2022-09-14T03:01:12.593Z,18.50
2022-09-14T03:03:39.712Z,18.70
2022-09-14T03:06:06.730Z,18.50
2022-09-14T03:08:34.080Z,18.50
2022-09-14T03:11:00.863Z,18.50
2022-09-14T03:13:27.649Z,18.50
2022-09-14T03:15:54.807Z,18.40
2022-09-14T03:18:21.617Z,18.30
2022-09-14T03:20:48.322Z,18.30
2022-09-14T03:23:15.118Z,18.30
2022-09-14T03:25:44.769Z,18.50
2022-09-14T03:28:12.723Z,18.40
2022-09-14T03:30:39.824Z,18.90
2022-09-14T03:33:06.657Z,18.70
2022-09-14T03:35:34.035Z,18.50
2022-09-14T03:38:03.292Z,18.70
2022-09-14T03:40:30.299Z,18.40
2022-09-14T03:42:57.195Z,18.40
2022-09-14T03:45:24.013Z,18.40
2022-09-14T03:47:50.663Z,18.50
2022-09-14T03:50:18.220Z,18.80
2022-09-14T03:52:44.907Z,18.40
2022-09-14T03:55:11.897Z,18.30
2022-09-14T03:57:39.442Z,18.30
2022-09-14T04:00:07.340Z,18.40
2022-09-14T04:02:34.420Z,18.30
2022-09-14T04:05:01.206Z,18.30
2022-09-14T04:07:28.191Z,18.30
2022-09-14T04:09:56.159Z,18.40
2022-09-14T04:12:22.912Z,18.30
2022-09-14T04:14:49.868Z,18.30
2022-09-14T04:17:17.666Z,18.30
2022-09-14T04:19:44.501Z,18.30
2022-09-14T04:22:11.281Z,18.50
2022-09-14T04:24:38.119Z,18.50
2022-09-14T04:27:04.938Z,18.30
2022-09-14T04:29:31.600Z,18.40
2022-09-14T04:31:58.426Z,18.40
2022-09-14T04:34:25.250Z,18.50
2022-09-14T04:36:52.012Z,18.40
2022-09-14T04:39:18.700Z,18.50
2022-09-14T04:41:45.622Z,18.50
2022-09-14T04:44:12.700Z,19.20
2022-09-14T04:46:46.083Z,18.40
2022-09-14T04:49:14.462Z,18.40
2022-09-14T04:51:41.246Z,18.30
2022-09-14T04:54:07.950Z,18.40
2022-09-14T04:56:36.836Z,18.60
2022-09-14T04:59:05.635Z,19.20
2022-09-14T05:01:38.498Z,18.90
2022-09-14T05:04:06.287Z,18.30
2022-09-14T05:06:35.060Z,18.40
2022-09-14T05:09:03.815Z,18.80
2022-09-14T05:11:33.413Z,18.60
2022-09-14T05:14:01.674Z,18.60
2022-09-14T05:16:30.816Z,18.70
2022-09-14T05:19:01.843Z,18.50
2022-09-14T05:21:30.323Z,18.50
2022-09-14T05:23:59.512Z,18.50
2022-09-14T05:26:29.042Z,18.60
2022-09-14T05:28:58.057Z,18.60
2022-09-14T05:31:26.440Z,18.60
2022-09-14T05:33:54.218Z,18.60
2022-09-14T05:36:21.835Z,18.50
2022-09-14T05:38:48.863Z,18.40
2022-09-14T05:41:16.488Z,18.50
2022-09-14T05:43:44.127Z,18.90
2022-09-14T05:46:14.533Z,18.50
2022-09-14T05:48:42.224Z,18.70
2022-09-14T05:51:15.926Z,18.50
2022-09-14T05:53:47.051Z,18.60
2022-09-14T05:56:14.855Z,18.80
2022-09-14T05:58:42.548Z,18.70
2022-09-14T06:01:11.730Z,18.70
2022-09-14T06:03:39.008Z,18.70
2022-09-14T06:06:07.085Z,18.80
2022-09-14T06:08:34.424Z,18.70
2022-09-14T06:11:07.203Z,18.80
2022-09-14T06:13:34.277Z,18.80
2022-09-14T06:16:06.182Z,18.90
2022-09-14T06:18:34.622Z,18.90
2022-09-14T06:21:01.934Z,19.30
2022-09-14T06:23:29.346Z,19.00
2022-09-14T06:25:57.530Z,18.90
2022-09-14T06:28:25.036Z,19.30
2022-09-14T06:30:51.807Z,19.40
2022-09-14T06:33:19.848Z,18.90
2022-09-14T06:35:57.380Z,18.90
2022-09-14T06:38:24.375Z,18.90
2022-09-14T06:40:59.592Z,19.00
2022-09-14T06:43:28.541Z,19.10
2022-09-14T06:46:04.277Z,19.30
2022-09-14T06:48:35.209Z,19.30
2022-09-14T06:51:19.841Z,19.30
2022-09-14T06:53:47.941Z,19.30
2022-09-14T06:56:15.259Z,19.30
2022-09-14T06:58:42.037Z,19.30
2022-09-14T07:01:13.304Z,19.40
2022-09-14T07:03:40.555Z,19.40
2022-09-14T07:06:10.485Z,19.30
2022-09-14T07:08:38.524Z,19.40
2022-09-14T07:11:06.982Z,19.40
2022-09-14T07:13:34.236Z,19.40
2022-09-14T07:16:01.303Z,19.40
2022-09-14T07:18:30.025Z,19.40
2022-09-14T07:21:05.260Z,19.60
2022-09-14T07:23:32.948Z,19.70
2022-09-14T07:26:01.604Z,19.70
2022-09-14T07:28:28.407Z,19.80
2022-09-14T07:30:58.921Z,19.90
2022-09-14T07:33:25.762Z,20.00
2022-09-14T07:35:52.932Z,20.40
2022-09-14T07:38:35.621Z,20.10
2022-09-14T07:41:07.608Z,20.20
2022-09-14T07:43:34.982Z,20.30
2022-09-14T07:46:05.929Z,20.30
2022-09-14T07:48:34.499Z,20.30
2022-09-14T07:51:07.397Z,20.30
2022-09-14T07:53:42.871Z,20.30
2022-09-14T07:56:11.190Z,20.30
2022-09-14T07:58:38.280Z,20.30
2022-09-14T08:01:12.009Z,20.40
2022-09-14T08:03:43.530Z,20.40
2022-09-14T08:06:15.587Z,20.40
2022-09-14T08:08:44.647Z,20.50
2022-09-14T08:11:12.499Z,20.50
2022-09-14T08:13:41.964Z,20.60
2022-09-14T08:16:09.454Z,20.90
2022-09-14T08:18:37.074Z,20.90
2022-09-14T08:21:15.756Z,21.10
2022-09-14T08:23:44.868Z,21.20
2022-09-14T08:26:14.330Z,21.40
2022-09-14T08:28:41.725Z,21.50
2022-09-14T08:31:10.068Z,21.70
2022-09-14T08:33:39.075Z,21.80
2022-09-14T08:36:08.479Z,21.70
2022-09-14T08:38:35.620Z,21.70
2022-09-14T08:41:12.618Z,21.70
2022-09-14T08:43:39.840Z,21.50
2022-09-14T08:46:15.200Z,21.40
2022-09-14T08:48:47.884Z,21.40
2022-09-14T08:51:16.988Z,21.40
2022-09-14T08:53:45.102Z,21.50
2022-09-14T08:56:14.541Z,21.60
2022-09-14T08:58:56.504Z,21.60
2022-09-14T09:01:49.403Z,21.70
2022-09-14T09:04:45.687Z,21.80
2022-09-14T09:07:34.439Z,22.00
2022-09-14T09:10:04.973Z,22.10
2022-09-14T09:12:42.162Z,22.30
2022-09-14T09:15:26.482Z,22.40
2022-09-14T09:18:11.252Z,22.40
2022-09-14T09:20:40.451Z,22.30
2022-09-14T09:23:14.824Z,22.30
2022-09-14T09:25:52.336Z,22.20
2022-09-14T09:28:21.386Z,22.00
2022-09-14T09:30:48.619Z,22.00
2022-09-14T09:33:23.350Z,21.90
2022-09-14T09:35:51.243Z,22.00
2022-09-14T09:38:24.670Z,22.00
2022-09-14T09:41:13.980Z,21.90
2022-09-14T09:44:01.053Z,21.90
2022-09-14T09:46:32.992Z,21.90
2022-09-14T09:49:03.335Z,22.00
2022-09-14T09:51:34.749Z,22.10
2022-09-14T09:54:13.704Z,22.10
2022-09-14T09:56:50.941Z,22.30
2022-09-14T09:59:36.360Z,22.30
2022-09-14T10:02:26.868Z,22.50
2022-09-14T10:05:04.097Z,22.50
2022-09-14T10:07:52.803Z,22.70
2022-09-14T10:10:25.865Z,22.80
2022-09-14T10:12:56.390Z,22.70
2022-09-14T10:15:23.023Z,22.70
2022-09-14T10:18:13.236Z,22.80
2022-09-14T10:20:44.476Z,22.70
2022-09-14T10:23:20.397Z,22.70
2022-09-14T10:25:49.559Z,22.70
2022-09-14T10:28:43.774Z,22.80
2022-09-14T10:31:18.308Z,22.90
2022-09-14T10:33:46.416Z,23.00
2022-09-14T10:36:13.032Z,23.20
2022-09-14T10:38:53.027Z,23.30
2022-09-14T10:41:49.071Z,23.30
2022-09-14T10:44:37.860Z,23.30
2022-09-14T10:47:13.483Z,23.30
2022-09-14T10:49:50.603Z,23.40
2022-09-14T10:53:08.171Z,23.50
2022-09-14T10:56:01.948Z,23.40
2022-09-14T10:59:06.056Z,23.30
2022-09-14T11:02:01.438Z,23.40
2022-09-14T11:04:39.237Z,23.30
2022-09-14T11:07:14.564Z,23.30
2022-09-14T11:09:48.084Z,23.30
2022-09-14T11:12:31.369Z,23.30
2022-09-14T11:15:23.505Z,23.20
2022-09-14T11:18:17.492Z,23.20
2022-09-14T11:20:44.191Z,23.30
2022-09-14T11:23:19.480Z,23.30
2022-09-14T11:26:03.835Z,23.20
2022-09-14T11:28:44.306Z,23.10
2022-09-14T11:31:18.999Z,23.20
2022-09-14T11:33:48.767Z,23.10
2022-09-14T11:36:22.937Z,23.10
2022-09-14T11:39:01.386Z,23.10
2022-09-14T11:41:36.176Z,23.00
2022-09-14T11:44:26.728Z,23.10
2022-09-14T11:47:15.374Z,22.90
2022-09-14T11:49:56.410Z,23.00
2022-09-14T11:52:26.450Z,23.00
2022-09-14T11:54:53.798Z,23.10
2022-09-14T11:57:30.381Z,23.90
2022-09-14T12:00:01.524Z,23.30
2022-09-14T12:02:28.470Z,23.30
2022-09-14T12:05:07.585Z,23.30
2022-09-14T12:07:55.512Z,23.50
2022-09-14T12:10:22.560Z,23.40
2022-09-14T12:13:18.245Z,23.40
2022-09-14T12:15:45.390Z,23.30
2022-09-14T12:18:13.347Z,23.20
2022-09-14T12:21:01.685Z,23.20
2022-09-14T12:23:37.719Z,23.20
2022-09-14T12:26:10.397Z,23.20
2022-09-14T12:28:39.845Z,23.20
2022-09-14T12:31:06.648Z,23.20
2022-09-14T12:33:33.442Z,23.30
2022-09-14T12:36:11.132Z,23.50
2022-09-14T12:38:38.100Z,23.70
2022-09-14T12:41:10.589Z,23.80
2022-09-14T12:43:37.543Z,23.90
2022-09-14T12:46:05.319Z,23.90
2022-09-14T12:48:47.367Z,24.20
2022-09-14T12:51:29.319Z,24.30
2022-09-14T12:54:00.185Z,24.20
2022-09-14T12:56:52.087Z,24.10
2022-09-14T12:59:18.705Z,24.00
2022-09-14T13:02:18.534Z,24.10
2022-09-14T13:04:47.818Z,24.00
2022-09-14T13:07:17.799Z,24.00
2022-09-14T13:09:50.525Z,23.90
2022-09-14T13:12:26.223Z,23.70
2022-09-14T13:14:58.218Z,23.50
2022-09-14T13:17:25.037Z,23.50
2022-09-14T13:20:17.868Z,23.40
2022-09-14T13:22:44.628Z,23.50
2022-09-14T13:25:32.897Z,23.40
2022-09-14T13:28:03.245Z,23.50
2022-09-14T13:30:31.788Z,23.20
2022-09-14T13:32:59.769Z,23.10
2022-09-14T13:35:31.792Z,22.80
2022-09-14T13:38:00.975Z,22.50
2022-09-14T13:40:30.550Z,22.30
2022-09-14T13:42:59.228Z,22.20
2022-09-14T13:45:26.702Z,22.00
2022-09-14T13:47:54.459Z,22.00
2022-09-14T13:50:25.381Z,22.10
2022-09-14T13:53:02.998Z,21.90
2022-09-14T13:55:33.123Z,21.80
2022-09-14T13:58:12.163Z,21.60
2022-09-14T14:00:47.949Z,21.50
2022-09-14T14:03:26.389Z,21.40
2022-09-14T14:05:53.292Z,21.40
2022-09-14T14:08:36.969Z,21.50
2022-09-14T14:11:07.301Z,21.60
2022-09-14T14:13:37.224Z,21.60
2022-09-14T14:16:26.998Z,21.60
2022-09-14T14:18:58.107Z,21.60
2022-09-14T14:21:27.019Z,21.70
2022-09-14T14:24:13.970Z,21.60
2022-09-14T14:26:48.923Z,21.60
2022-09-14T14:29:16.614Z,21.60
2022-09-14T14:31:43.858Z,21.60
2022-09-14T14:34:22.666Z,21.60
2022-09-14T14:36:50.266Z,21.50
2022-09-14T14:39:21.231Z,21.50
2022-09-14T14:41:48.685Z,21.50
2022-09-14T14:44:28.267Z,20.90
2022-09-14T14:46:56.466Z,20.50
2022-09-14T14:49:23.824Z,20.30
2022-09-14T14:51:50.904Z,20.10
2022-09-14T14:54:18.915Z,19.90
2022-09-14T14:56:50.734Z,19.70
2022-09-14T14:59:20.239Z,19.70
2022-09-14T15:01:48.042Z,19.60
2022-09-14T15:04:15.480Z,19.60
2022-09-14T15:06:42.396Z,19.60
2022-09-14T15:09:22.513Z,19.70
2022-09-14T15:11:50.409Z,19.60
2022-09-14T15:14:20.705Z,19.70
2022-09-14T15:16:50.572Z,19.80
2022-09-14T15:19:17.285Z,19.80
2022-09-14T15:21:44.397Z,20.00
2022-09-14T15:24:11.645Z,19.90
2022-09-14T15:26:38.368Z,19.90
2022-09-14T15:29:05.374Z,20.10
2022-09-14T15:31:32.484Z,20.30
2022-09-14T15:33:59.672Z,20.50
2022-09-14T15:36:36.474Z,20.80
2022-09-14T15:39:04.274Z,21.00
2022-09-14T15:41:31.077Z,21.20
2022-09-14T15:43:57.719Z,21.50
2022-09-14T15:46:24.713Z,21.70
2022-09-14T15:48:51.503Z,22.10
2022-09-14T15:51:19.642Z,22.70
2022-09-14T15:53:47.706Z,23.00
2022-09-14T15:56:16.229Z,23.00
2022-09-14T15:58:47.836Z,22.90
2022-09-14T16:01:16.979Z,23.20
2022-09-14T16:03:44.133Z,22.90
2022-09-14T16:06:11.983Z,22.70
2022-09-14T16:08:40.092Z,22.20
2022-09-14T16:11:08.950Z,21.70
2022-09-14T16:13:36.177Z,21.40
2022-09-14T16:16:10.217Z,21.30
2022-09-14T16:18:37.923Z,21.30
2022-09-14T16:21:27.687Z,21.20
2022-09-14T16:23:57.734Z,21.00
2022-09-14T16:26:33.602Z,20.90
2022-09-14T16:29:00.682Z,20.80
2022-09-14T16:31:33.696Z,20.70
2022-09-14T16:34:04.654Z,20.50
2022-09-14T16:36:33.900Z,20.40
2022-09-14T16:39:02.765Z,20.30
2022-09-14T16:41:30.585Z,20.30
2022-09-14T16:43:59.891Z,20.10
2022-09-14T16:46:28.818Z,20.10
2022-09-14T16:48:56.688Z,19.90
2022-09-14T16:51:25.214Z,19.90
2022-09-14T16:53:52.975Z,19.80
2022-09-14T16:56:24.862Z,19.90
2022-09-14T16:58:53.664Z,19.90
2022-09-14T17:01:25.235Z,19.60
2022-09-14T17:03:53.584Z,19.50
2022-09-14T17:06:22.847Z,19.50
2022-09-14T17:08:52.331Z,19.60
2022-09-14T17:11:19.183Z,19.60
2022-09-14T17:13:46.353Z,19.60
2022-09-14T17:16:18.778Z,20.10
2022-09-14T17:18:48.814Z,19.40
2022-09-14T17:21:18.879Z,19.30
2022-09-14T17:23:45.992Z,19.50
2022-09-14T17:26:14.990Z,19.50
2022-09-14T17:28:44.491Z,19.40
2022-09-14T17:31:13.047Z,20.00
2022-09-14T17:33:39.807Z,19.20
2022-09-14T17:36:07.574Z,19.70
2022-09-14T17:38:36.993Z,19.20
2022-09-14T17:41:05.620Z,19.90
2022-09-14T17:43:33.580Z,19.20
2022-09-14T17:46:00.733Z,19.20
2022-09-14T17:48:27.898Z,19.30
2022-09-14T17:50:55.339Z,19.20
2022-09-14T17:53:22.523Z,19.30
2022-09-14T17:55:49.407Z,19.30
2022-09-14T17:58:19.634Z,19.30
2022-09-14T18:00:46.737Z,19.20
2022-09-14T18:03:13.642Z,19.20
2022-09-14T18:05:40.398Z,19.10
2022-09-14T18:08:07.219Z,19.70
2022-09-14T18:10:36.613Z,19.10
2022-09-14T18:13:03.235Z,19.20
2022-09-14T18:15:31.065Z,19.60
2022-09-14T18:17:57.892Z,19.20
2022-09-14T18:20:24.584Z,19.90
2022-09-14T18:22:52.529Z,19.50
2022-09-14T18:25:19.218Z,19.10
2022-09-14T18:27:46.044Z,19.30
2022-09-14T18:30:13.296Z,19.60
2022-09-14T18:32:39.936Z,19.20
2022-09-14T18:35:07.504Z,19.10
2022-09-14T18:37:34.183Z,19.20
2022-09-14T18:40:01.058Z,19.10
2022-09-14T18:42:28.160Z,19.20
2022-09-14T18:44:56.285Z,19.20
2022-09-14T18:47:22.988Z,19.20
2022-09-14T18:49:50.187Z,19.20
2022-09-14T18:52:20.069Z,19.20
2022-09-14T18:54:46.801Z,19.30
2022-09-14T18:57:14.833Z,19.20
2022-09-14T18:59:41.504Z,19.30
2022-09-14T19:02:10.802Z,19.40
2022-09-14T19:04:38.508Z,19.10
2022-09-14T19:07:06.058Z,19.00
2022-09-14T19:09:32.893Z,19.00
2022-09-14T19:11:59.540Z,19.00
2022-09-14T19:14:26.453Z,19.50
2022-09-14T19:16:57.488Z,19.10
2022-09-14T19:19:26.278Z,19.70
2022-09-14T19:21:54.094Z,19.10
2022-09-14T19:24:20.827Z,19.10
2022-09-14T19:26:50.751Z,19.30
2022-09-14T19:29:20.468Z,19.00
2022-09-14T19:31:51.396Z,18.90
2022-09-14T19:34:20.026Z,18.90
2022-09-14T19:36:46.704Z,19.00
2022-09-14T19:39:13.607Z,19.10
2022-09-14T19:41:40.586Z,19.00
2022-09-14T19:44:07.739Z,19.10
2022-09-14T19:46:36.370Z,19.10
2022-09-14T19:49:03.185Z,19.10
2022-09-14T19:51:30.954Z,19.00
2022-09-14T19:54:00.414Z,19.00
2022-09-14T19:56:32.085Z,19.00
2022-09-14T19:59:01.287Z,19.00
2022-09-14T20:01:29.717Z,19.00
2022-09-14T20:03:57.171Z,18.90
2022-09-14T20:06:28.939Z,18.90
2022-09-14T20:09:17.240Z,18.90
2022-09-14T20:11:46.214Z,18.70
2022-09-14T20:14:15.645Z,18.80
2022-09-14T20:16:47.990Z,18.80
2022-09-14T20:19:17.001Z,18.80
2022-09-14T20:21:45.176Z,18.90
2022-09-14T20:24:18.619Z,18.90
2022-09-14T20:26:51.133Z,18.80
2022-09-14T20:29:20.074Z,18.80
2022-09-14T20:31:47.460Z,18.70
2022-09-14T20:34:16.554Z,18.70
2022-09-14T20:36:43.347Z,18.70
2022-09-14T20:39:10.641Z,18.60
2022-09-14T20:41:37.803Z,18.70
2022-09-14T20:44:05.250Z,18.60
2022-09-14T20:46:39.148Z,18.90
2022-09-14T20:49:11.365Z,18.50
2022-09-14T20:51:39.006Z,18.50
2022-09-14T20:54:06.851Z,18.50
2022-09-14T20:56:35.215Z,18.60
2022-09-14T20:59:05.467Z,18.80
2022-09-14T21:01:34.538Z,18.30
2022-09-14T21:04:04.630Z,18.40
2022-09-14T21:06:31.545Z,18.40
2022-09-14T21:08:59.961Z,18.40
2022-09-14T21:11:27.895Z,18.30
2022-09-14T21:13:56.776Z,18.30
2022-09-14T21:16:27.711Z,18.30
2022-09-14T21:19:01.466Z,18.30
2022-09-14T21:21:28.837Z,18.20
2022-09-14T21:23:57.530Z,18.20
2022-09-14T21:26:25.612Z,18.20
2022-09-14T21:29:00.963Z,18.40
2022-09-14T21:31:30.042Z,18.20
2022-09-14T21:33:59.122Z,18.60
2022-09-14T21:36:31.912Z,18.20
2022-09-14T21:39:00.076Z,18.30
2022-09-14T21:41:28.961Z,18.30
2022-09-14T21:43:56.927Z,18.20
2022-09-14T21:46:24.884Z,18.30
2022-09-14T21:48:52.338Z,18.00
2022-09-14T21:51:28.457Z,18.30
2022-09-14T21:54:01.070Z,18.00
2022-09-14T21:56:30.527Z,18.00
2022-09-14T21:58:59.688Z,18.00
2022-09-14T22:01:27.387Z,17.90
2022-09-14T22:03:55.307Z,17.90
2022-09-14T22:06:28.108Z,18.00
2022-09-14T22:08:56.240Z,18.10
2022-09-14T22:11:25.966Z,17.90
2022-09-14T22:14:05.294Z,17.90
2022-09-14T22:16:34.031Z,17.90
2022-09-14T22:19:06.766Z,17.80
2022-09-14T22:21:36.665Z,17.80
2022-09-14T22:24:06.591Z,17.80
2022-09-14T22:26:34.444Z,17.70
2022-09-14T22:29:01.835Z,17.80
2022-09-14T22:31:29.503Z,18.20
2022-09-14T22:33:57.564Z,18.20
2022-09-14T22:36:25.649Z,18.10
2022-09-14T22:38:56.731Z,17.80
2022-09-14T22:41:23.872Z,17.90
2022-09-14T22:43:50.514Z,17.80
2022-09-14T22:46:18.059Z,17.80
2022-09-14T22:48:45.505Z,17.80
2022-09-14T22:51:17.902Z,17.90
2022-09-14T22:53:44.979Z,17.70
2022-09-14T22:56:16.894Z,17.70
2022-09-14T22:58:44.644Z,17.70
2022-09-14T23:01:18.892Z,17.80
2022-09-14T23:03:45.852Z,17.70
2022-09-14T23:06:12.977Z,17.80
2022-09-14T23:08:39.907Z,17.60
2022-09-14T23:11:10.746Z,18.00
2022-09-14T23:13:41.950Z,17.60
2022-09-14T23:16:13.716Z,17.60
2022-09-14T23:18:40.750Z,17.50
2022-09-14T23:21:08.210Z,17.60
2022-09-14T23:23:35.458Z,17.60
2022-09-14T23:26:10.091Z,17.50
2022-09-14T23:28:37.628Z,17.50
2022-09-14T23:31:05.679Z,17.60
2022-09-14T23:33:34.240Z,17.60
2022-09-14T23:36:01.112Z,17.60
2022-09-14T23:38:27.844Z,17.60
2022-09-14T23:40:54.592Z,17.90
2022-09-14T23:43:21.267Z,17.70
2022-09-14T23:45:48.433Z,17.70
2022-09-14T23:48:15.674Z,17.60
2022-09-14T23:50:42.764Z,17.50
2022-09-14T23:53:09.538Z,17.90
2022-09-14T23:55:36.714Z,17.50
2022-09-14T23:58:03.977Z,17.40
